createdAt,value
2023-02-13T00:02:40.121Z,29.30
2023-02-13T00:06:08.062Z,27.60
2023-02-13T00:09:35.376Z,29.30
2023-02-13T00:13:05.753Z,25.50
2023-02-13T00:16:33.276Z,27.60
2023-02-13T00:20:00.809Z,30.30
2023-02-13T00:23:28.941Z,27.80
2023-02-13T00:26:56.228Z,29.20
2023-02-13T00:30:24.071Z,28.60
2023-02-13T00:33:51.594Z,29.80
2023-02-13T00:37:18.996Z,32.70
2023-02-13T00:40:56.537Z,27.20
2023-02-13T00:44:24.170Z,31.00
2023-02-13T00:47:51.323Z,32.30
2023-02-13T00:51:20.927Z,35.10
2023-02-13T00:54:48.425Z,34.70
2023-02-13T00:58:16.011Z,32.80
2023-02-13T01:01:45.221Z,33.30
2023-02-13T01:05:13.110Z,40.60
2023-02-13T01:08:43.346Z,34.90
2023-02-13T01:12:11.231Z,34.20
2023-02-13T01:15:38.900Z,31.00
2023-02-13T01:19:07.393Z,28.80
2023-02-13T01:22:34.825Z,36.90
2023-02-13T01:26:02.235Z,31.30
2023-02-13T01:29:29.423Z,32.60
2023-02-13T01:32:56.634Z,32.40
2023-02-13T01:36:24.060Z,33.10
2023-02-13T01:39:56.461Z,28.20
2023-02-13T01:43:26.162Z,32.00
2023-02-13T01:46:54.078Z,32.80
2023-02-13T01:50:46.108Z,30.60
2023-02-13T01:54:18.467Z,31.80
2023-02-13T01:57:50.687Z,30.80
2023-02-13T02:01:18.433Z,32.30
2023-02-13T02:04:47.964Z,30.40
2023-02-13T02:08:18.549Z,29.10
2023-02-13T02:12:02.499Z,32.70
2023-02-13T02:15:30.503Z,31.30
2023-02-13T02:18:58.347Z,31.40
2023-02-13T02:22:58.291Z,29.10
2023-02-13T02:26:59.692Z,30.80
2023-02-13T02:31:17.470Z,31.50
2023-02-13T02:34:57.679Z,30.00
2023-02-13T02:38:40.570Z,29.30
2023-02-13T02:42:19.561Z,29.60
2023-02-13T02:45:54.337Z,32.10
2023-02-13T02:49:54.334Z,27.00
2023-02-13T02:53:49.411Z,26.80
2023-02-13T02:57:23.092Z,34.70
2023-02-13T03:01:16.882Z,36.00
2023-02-13T03:05:08.149Z,29.70
2023-02-13T03:08:52.872Z,25.80
2023-02-13T03:12:41.943Z,29.20
2023-02-13T03:16:30.939Z,26.80
2023-02-13T03:20:25.222Z,28.50
2023-02-13T03:24:02.356Z,29.70
2023-02-13T03:27:58.532Z,30.40
2023-02-13T03:31:33.377Z,26.70
2023-02-13T03:35:39.070Z,31.80
2023-02-13T03:39:13.892Z,27.90
2023-02-13T03:42:47.106Z,25.30
2023-02-13T03:46:15.676Z,30.00
2023-02-13T03:50:08.086Z,30.50
2023-02-13T03:53:39.494Z,27.20
2023-02-13T03:57:24.295Z,25.00
2023-02-13T04:00:55.350Z,26.70
2023-02-13T04:04:28.996Z,23.50
2023-02-13T04:07:56.420Z,25.50
2023-02-13T04:11:32.150Z,26.40
2023-02-13T04:15:05.559Z,30.30
2023-02-13T04:18:34.228Z,32.70
2023-02-13T04:22:03.263Z,32.30
2023-02-13T04:25:30.540Z,27.40
2023-02-13T04:28:57.727Z,31.50
2023-02-13T04:32:24.987Z,27.40
2023-02-13T04:35:52.715Z,26.30
2023-02-13T04:39:20.736Z,30.50
2023-02-13T04:42:50.416Z,29.30
2023-02-13T04:49:43.395Z,23.70
2023-02-13T04:53:10.748Z,29.20
2023-02-13T04:56:37.825Z,26.90
2023-02-13T05:00:05.664Z,24.50
2023-02-13T05:03:32.847Z,25.70
2023-02-13T05:07:00.143Z,27.40
2023-02-13T05:10:27.561Z,24.80
2023-02-13T05:13:55.103Z,27.40
2023-02-13T05:17:22.418Z,27.90
2023-02-13T05:21:09.856Z,28.90
2023-02-13T05:24:36.951Z,29.30
2023-02-13T05:28:04.731Z,24.20
2023-02-13T05:31:32.013Z,24.10
2023-02-13T05:34:59.405Z,26.20
2023-02-13T05:38:26.556Z,29.10
2023-02-13T05:41:53.849Z,27.40
2023-02-13T05:45:21.418Z,26.80
2023-02-13T05:48:48.450Z,29.30
2023-02-13T05:52:15.740Z,28.60
2023-02-13T05:55:43.240Z,33.70
2023-02-13T05:59:10.776Z,30.60
2023-02-13T06:02:38.039Z,29.60
2023-02-13T06:06:05.852Z,27.10
2023-02-13T06:09:33.170Z,27.50
2023-02-13T06:13:00.453Z,25.90
2023-02-13T06:16:28.141Z,25.90
2023-02-13T06:19:55.566Z,27.00
2023-02-13T06:23:22.651Z,26.40
2023-02-13T06:26:49.902Z,25.30
2023-02-13T06:33:49.134Z,26.00
2023-02-13T06:37:27.393Z,20.00
2023-02-13T06:40:54.516Z,18.50
2023-02-13T06:44:21.988Z,21.60
2023-02-13T06:47:50.380Z,20.00
2023-02-13T06:51:17.820Z,21.60
2023-02-13T06:54:48.053Z,18.50
2023-02-13T06:58:15.527Z,18.90
2023-02-13T07:01:42.908Z,22.10
2023-02-13T07:05:11.642Z,21.10
2023-02-13T07:08:38.764Z,24.40
2023-02-13T07:12:08.397Z,24.60
2023-02-13T07:19:01.373Z,28.90
2023-02-13T07:22:28.787Z,25.60
2023-02-13T07:25:56.154Z,24.10
2023-02-13T07:29:23.387Z,25.00
2023-02-13T07:32:53.287Z,22.80
2023-02-13T07:36:20.566Z,25.00
2023-02-13T07:39:47.782Z,28.40
2023-02-13T07:43:17.592Z,22.30
2023-02-13T07:46:44.925Z,20.20
2023-02-13T07:50:13.800Z,19.90
2023-02-13T07:53:41.015Z,21.10
2023-02-13T07:57:08.477Z,21.20
2023-02-13T08:00:35.686Z,18.60
2023-02-13T08:04:02.878Z,18.40
2023-02-13T08:07:30.213Z,20.10
2023-02-13T08:11:16.184Z,16.40
2023-02-13T08:14:43.651Z,19.40
2023-02-13T08:18:11.048Z,21.90
2023-02-13T08:21:38.351Z,17.30
2023-02-13T08:25:06.047Z,19.50
2023-02-13T08:28:33.321Z,20.80
2023-02-13T08:32:00.697Z,15.00
2023-02-13T08:35:29.847Z,17.40
2023-02-13T08:38:57.082Z,23.60
2023-02-13T08:42:24.267Z,22.10
2023-02-13T08:45:51.470Z,19.20
2023-02-13T08:49:19.045Z,20.70
2023-02-13T08:52:46.370Z,15.40
2023-02-13T08:56:13.593Z,21.60
2023-02-13T08:59:40.743Z,17.60
2023-02-13T09:03:10.095Z,16.00
2023-02-13T09:06:37.988Z,17.70
2023-02-13T09:10:05.538Z,20.00
2023-02-13T09:13:34.564Z,21.40
2023-02-13T09:17:01.636Z,19.90
2023-02-13T09:20:29.006Z,18.60
2023-02-13T09:23:56.364Z,17.00
2023-02-13T09:27:23.409Z,19.00
2023-02-13T09:30:50.919Z,23.70
2023-02-13T09:34:18.353Z,24.90
2023-02-13T09:37:45.920Z,27.20
2023-02-13T09:41:17.419Z,22.90
2023-02-13T09:44:46.295Z,28.30
2023-02-13T09:48:20.541Z,28.10
2023-02-13T09:51:49.830Z,31.20
2023-02-13T09:55:22.974Z,35.90
2023-02-13T09:58:58.701Z,25.50
2023-02-13T10:02:42.558Z,26.00
2023-02-13T10:06:16.195Z,23.20
2023-02-13T10:09:54.225Z,17.40
2023-02-13T10:13:34.004Z,18.80
2023-02-13T10:17:05.474Z,17.10
2023-02-13T10:20:37.140Z,12.20
2023-02-13T10:24:08.730Z,11.10
2023-02-13T10:27:41.448Z,14.10
2023-02-13T10:31:12.358Z,13.80
2023-02-13T10:34:44.966Z,13.60
2023-02-13T10:38:20.450Z,12.70
2023-02-13T10:41:57.812Z,9.90
2023-02-13T10:45:47.416Z,10.90
2023-02-13T10:49:38.093Z,12.90
2023-02-13T10:53:18.102Z,17.10
2023-02-13T10:56:52.959Z,13.40
2023-02-13T11:00:27.312Z,12.80
2023-02-13T11:04:07.572Z,12.60
2023-02-13T11:07:37.106Z,15.90
2023-02-13T11:11:05.969Z,13.80
2023-02-13T11:14:33.806Z,11.60
2023-02-13T11:18:13.436Z,12.40
2023-02-13T11:21:41.133Z,12.60
2023-02-13T11:25:20.064Z,13.30
2023-02-13T11:28:55.564Z,10.70
2023-02-13T11:32:25.235Z,13.10
2023-02-13T11:36:05.022Z,12.10
2023-02-13T11:42:57.789Z,10.50
2023-02-13T11:46:27.004Z,17.90
2023-02-13T11:49:54.328Z,14.40
2023-02-13T11:53:25.585Z,12.90
2023-02-13T11:57:04.696Z,12.10
2023-02-13T12:00:40.051Z,11.80
2023-02-13T12:04:16.208Z,11.10
2023-02-13T12:07:44.561Z,11.20
2023-02-13T12:11:23.385Z,13.00
2023-02-13T12:14:51.799Z,12.80
2023-02-13T12:18:28.097Z,11.60
2023-02-13T12:22:15.077Z,13.30
2023-02-13T12:25:55.273Z,14.80
2023-02-13T12:29:39.071Z,14.30
2023-02-13T12:33:18.971Z,11.30
2023-02-13T12:40:44.367Z,12.30
2023-02-13T12:44:42.820Z,14.70
2023-02-13T12:48:29.580Z,17.50
2023-02-13T12:52:15.147Z,19.50
2023-02-13T12:56:03.066Z,13.90
2023-02-13T12:59:43.260Z,14.40
2023-02-13T13:03:41.303Z,13.90
2023-02-13T13:07:30.240Z,14.00
2023-02-13T13:11:13.975Z,16.50
2023-02-13T13:14:46.470Z,15.20
2023-02-13T13:18:29.767Z,13.30
2023-02-13T13:22:01.714Z,13.20
2023-02-13T13:25:49.736Z,18.50
2023-02-13T13:29:22.025Z,13.50
2023-02-13T13:32:53.251Z,14.20
2023-02-13T13:36:36.830Z,13.20
2023-02-13T13:40:17.976Z,17.80
2023-02-13T13:43:58.770Z,19.60
2023-02-13T13:47:41.892Z,43.60
2023-02-13T13:51:20.149Z,24.20
2023-02-13T13:55:00.690Z,69.00
2023-02-13T13:58:36.754Z,60.90
2023-02-13T14:02:41.586Z,99.70
2023-02-13T14:06:11.716Z,119.60
2023-02-13T14:09:43.986Z,188.70
2023-02-13T14:13:11.603Z,340.80
2023-02-13T14:17:01.939Z,173.70
2023-02-13T14:20:38.919Z,223.30
2023-02-13T14:24:36.078Z,135.70
2023-02-13T14:28:05.741Z,117.10
2023-02-13T14:31:35.842Z,128.80
2023-02-13T14:35:07.488Z,99.00
2023-02-13T14:38:35.680Z,70.20
2023-02-13T14:42:04.536Z,60.90
2023-02-13T14:45:35.240Z,60.50
2023-02-13T14:49:08.232Z,30.90
2023-02-13T14:52:43.062Z,22.10
2023-02-13T14:56:14.563Z,23.50
2023-02-13T14:59:47.847Z,19.90
2023-02-13T15:03:25.939Z,21.00
2023-02-13T15:06:55.489Z,20.20
2023-02-13T15:10:37.484Z,18.50
2023-02-13T15:14:23.238Z,20.40
2023-02-13T15:17:50.747Z,16.00
2023-02-13T15:21:22.315Z,16.60
2023-02-13T15:24:51.753Z,15.80
2023-02-13T15:28:23.082Z,16.40
2023-02-13T15:31:52.825Z,16.00
2023-02-13T15:35:28.101Z,16.10
2023-02-13T15:39:09.530Z,12.30
2023-02-13T15:42:39.035Z,18.40
2023-02-13T15:46:19.019Z,17.50
2023-02-13T15:49:50.406Z,14.90
2023-02-13T15:53:19.913Z,15.30
2023-02-13T15:56:49.786Z,14.40
2023-02-13T16:00:25.630Z,15.40
2023-02-13T16:04:00.041Z,18.70
2023-02-13T16:07:27.215Z,17.60
2023-02-13T16:11:25.122Z,14.20
2023-02-13T16:14:56.397Z,19.20
2023-02-13T16:18:23.820Z,17.30
2023-02-13T16:21:52.968Z,19.00
2023-02-13T16:25:26.155Z,17.50
2023-02-13T16:28:55.229Z,23.40
2023-02-13T16:32:29.422Z,19.40
2023-02-13T16:35:58.079Z,20.40
2023-02-13T16:39:45.677Z,18.50
2023-02-13T16:43:51.742Z,32.00
2023-02-13T16:47:25.325Z,39.80
2023-02-13T16:50:59.532Z,28.90
2023-02-13T16:54:34.680Z,22.90
2023-02-13T16:58:07.300Z,16.30
2023-02-13T17:01:38.347Z,17.40
2023-02-13T17:05:25.062Z,20.00
2023-02-13T17:08:53.869Z,20.60
2023-02-13T17:12:21.897Z,19.80
2023-02-13T17:15:50.465Z,18.60
2023-02-13T17:19:17.811Z,20.50
2023-02-13T17:22:47.277Z,18.50
2023-02-13T17:26:16.929Z,17.70
2023-02-13T17:29:44.224Z,17.80
2023-02-13T17:33:16.524Z,16.10
2023-02-13T17:36:43.631Z,19.30
2023-02-13T17:40:16.619Z,17.80
2023-02-13T17:43:43.900Z,16.60
2023-02-13T17:47:11.372Z,18.50
2023-02-13T17:50:39.875Z,15.70
2023-02-13T17:54:07.579Z,16.30
2023-02-13T17:57:37.957Z,18.40
2023-02-13T18:01:06.017Z,18.80
2023-02-13T18:04:42.710Z,35.30
2023-02-13T18:08:13.217Z,59.80
2023-02-13T18:11:40.525Z,29.80
2023-02-13T18:15:09.326Z,19.50
2023-02-13T18:18:36.643Z,23.60
2023-02-13T18:22:04.050Z,24.60
2023-02-13T18:25:31.419Z,24.10
2023-02-13T18:28:58.784Z,23.00
2023-02-13T18:32:26.361Z,22.30
2023-02-13T18:35:59.111Z,27.40
2023-02-13T18:39:26.401Z,25.60
2023-02-13T18:42:53.468Z,27.00
2023-02-13T18:46:20.831Z,24.40
2023-02-13T18:49:48.204Z,16.00
2023-02-13T18:53:15.660Z,18.50
2023-02-13T18:56:43.128Z,18.10
2023-02-13T19:00:17.326Z,26.10
2023-02-13T19:03:44.610Z,19.80
2023-02-13T19:07:11.953Z,23.60
2023-02-13T19:10:39.066Z,21.50
2023-02-13T19:14:07.370Z,20.70
2023-02-13T19:17:39.193Z,17.20
2023-02-13T19:21:07.865Z,22.40
2023-02-13T19:24:35.528Z,24.40
2023-02-13T19:28:02.746Z,20.10
2023-02-13T19:31:32.377Z,21.60
2023-02-13T19:34:59.762Z,19.70
2023-02-13T19:38:26.945Z,22.60
2023-02-13T19:41:54.297Z,20.40
2023-02-13T19:45:21.986Z,21.60
2023-02-13T19:48:49.646Z,19.80
2023-02-13T19:52:17.140Z,22.60
2023-02-13T19:55:44.556Z,27.60
2023-02-13T19:59:13.629Z,25.70
2023-02-13T20:02:41.591Z,23.50
2023-02-13T20:06:14.119Z,23.10
2023-02-13T20:09:42.094Z,20.50
2023-02-13T20:13:09.261Z,22.10
2023-02-13T20:16:37.106Z,21.50
2023-02-13T20:20:05.293Z,20.00
2023-02-13T20:23:32.658Z,21.50
2023-02-13T20:26:59.931Z,20.50
2023-02-13T20:30:27.692Z,25.90
2023-02-13T20:33:59.471Z,40.90
2023-02-13T20:37:26.762Z,30.90
2023-02-13T20:40:57.829Z,38.50
2023-02-13T20:44:29.732Z,24.90
2023-02-13T20:47:56.994Z,23.60
2023-02-13T20:51:24.294Z,21.40
2023-02-13T20:54:51.501Z,21.30
2023-02-13T20:58:19.358Z,21.70
2023-02-13T21:01:50.075Z,25.10
2023-02-13T21:05:18.214Z,29.70
2023-02-13T21:08:46.566Z,26.60
2023-02-13T21:12:14.514Z,42.20
2023-02-13T21:15:41.985Z,37.90
2023-02-13T21:19:13.017Z,40.60
2023-02-13T21:22:40.441Z,72.40
2023-02-13T21:26:13.409Z,77.40
2023-02-13T21:29:41.256Z,86.30
2023-02-13T21:33:08.374Z,87.90
2023-02-13T21:36:37.311Z,81.80
2023-02-13T21:40:08.524Z,92.40
2023-02-13T21:43:37.975Z,89.70
2023-02-13T21:47:11.289Z,101.60
2023-02-13T21:50:48.419Z,93.10
2023-02-13T21:54:16.340Z,106.00
2023-02-13T21:57:44.115Z,89.90
2023-02-13T22:01:25.460Z,127.00
2023-02-13T22:04:53.805Z,140.20
2023-02-13T22:08:21.017Z,139.70
2023-02-13T22:11:50.442Z,147.70
2023-02-13T22:15:19.239Z,149.00
2023-02-13T22:18:49.105Z,124.30
2023-02-13T22:22:16.387Z,107.70
2023-02-13T22:25:48.056Z,81.90
2023-02-13T22:29:17.921Z,86.80
2023-02-13T22:32:47.751Z,62.70
2023-02-13T22:36:16.828Z,57.20
2023-02-13T22:39:44.074Z,61.90
2023-02-13T22:43:13.632Z,79.10
2023-02-13T22:46:40.912Z,53.80
2023-02-13T22:50:10.325Z,46.10
2023-02-13T22:53:38.554Z,43.00
2023-02-13T22:57:06.200Z,58.30
2023-02-13T23:00:33.474Z,59.00
2023-02-13T23:04:00.911Z,67.40
2023-02-13T23:07:28.224Z,65.20
2023-02-13T23:11:13.127Z,60.80
2023-02-13T23:14:40.327Z,53.10
2023-02-13T23:18:13.914Z,50.30
2023-02-13T23:21:41.088Z,51.20
2023-02-13T23:25:09.051Z,44.10
2023-02-13T23:28:43.785Z,48.60
2023-02-13T23:32:11.178Z,53.60
2023-02-13T23:35:38.427Z,47.60
2023-02-13T23:39:05.696Z,53.10
2023-02-13T23:42:32.881Z,46.40
2023-02-13T23:46:00.166Z,42.00
2023-02-13T23:49:27.435Z,36.50
2023-02-13T23:52:54.770Z,36.70
2023-02-13T23:56:22.067Z,38.80
2023-02-13T23:59:49.482Z,42.30
